Time;durP1;ratioP1;P1;durP2;ratioP2;P2;SDS_P1;SDS_P2;PMS_P1;PMS_P2;Temp;Humidity;BMP_temperature;BMP_pressure;BME280_temperature;BME280_humidity;BME280_pressure;Samples;Min_cycle;Max_cycle;Signal;HPM_P1;HPM_P2
2023/04/19 00:02:42;;;;;;;46.93;24.93;;;9.40;99.90;;;;;;4413870;28;659367;-68
2023/04/19 00:05:30;;;;;;;46.83;23.83;;;9.40;99.90;;;;;;4433687;28;659536;-67
2023/04/19 00:08:17;;;;;;;45.73;24.67;;;9.40;99.90;;;;;;4423925;28;660238;-67
2023/04/19 00:11:05;;;;;;;48.03;25.77;;;9.40;99.90;;;;;;4448372;28;659801;-67
2023/04/19 00:13:52;;;;;;;47.23;25.27;;;9.30;99.90;;;;;;4446342;28;660011;-68
2023/04/19 00:16:40;;;;;;;46.87;26.10;;;9.40;99.90;;;;;;4443483;27;659763;-67
2023/04/19 00:19:28;;;;;;;46.30;26.40;;;9.40;99.90;;;;;;4442996;28;661606;-67
2023/04/19 00:22:17;;;;;;;49.10;26.10;;;9.40;99.90;;;;;;4425206;28;659197;-68
2023/04/19 00:25:04;;;;;;;51.30;25.40;;;9.40;99.90;;;;;;4446219;28;659296;-67
2023/04/19 00:27:52;;;;;;;51.07;26.27;;;9.30;99.90;;;;;;4426044;28;660509;-67
2023/04/19 00:30:39;;;;;;;48.57;27.13;;;9.30;99.90;;;;;;4438386;28;659201;-67
2023/04/19 00:33:26;;;;;;;48.70;25.93;;;9.20;99.90;;;;;;4415023;28;660283;-67
2023/04/19 00:36:13;;;;;;;54.73;27.40;;;9.20;99.90;;;;;;4443297;28;660332;-67
2023/04/19 00:39:02;;;;;;;54.70;25.73;;;9.10;99.90;;;;;;4414587;28;659684;-68
2023/04/19 00:41:49;;;;;;;54.80;27.33;;;9.00;99.90;;;;;;4446542;28;659780;-67
2023/04/19 00:44:36;;;;;;;50.73;26.73;;;9.00;99.90;;;;;;4426480;28;659921;-67
2023/04/19 00:47:24;;;;;;;53.57;28.10;;;9.10;99.90;;;;;;4440682;28;660236;-68
2023/04/19 00:50:11;;;;;;;52.93;27.93;;;9.10;99.90;;;;;;4431689;28;660049;-67
2023/04/19 00:52:58;;;;;;;54.60;28.87;;;9.10;99.90;;;;;;4453894;28;660398;-67
2023/04/19 00:55:49;;;;;;;54.60;28.53;;;9.20;99.90;;;;;;4420628;28;660905;-67
2023/04/19 00:58:37;;;;;;;61.03;30.27;;;9.10;99.90;;;;;;4423021;28;659462;-67
2023/04/19 01:01:25;;;;;;;54.87;31.30;;;9.10;99.90;;;;;;4441111;28;660071;-67
2023/04/19 01:04:12;;;;;;;54.13;29.80;;;9.10;99.90;;;;;;4445111;28;660617;-67
2023/04/19 01:07:01;;;;;;;58.27;29.83;;;9.10;99.90;;;;;;4447413;28;659868;-68
2023/04/19 01:09:49;;;;;;;59.00;30.27;;;9.10;99.90;;;;;;4446057;27;660485;-67
2023/04/19 01:12:37;;;;;;;58.23;29.87;;;9.10;99.90;;;;;;4423839;28;660118;-67
2023/04/19 01:15:24;;;;;;;60.83;31.60;;;9.00;99.90;;;;;;4435757;28;660561;-68
2023/04/19 01:18:12;;;;;;;57.47;31.17;;;9.00;99.90;;;;;;4432077;28;659890;-67
2023/04/19 01:21:00;;;;;;;54.50;29.43;;;9.00;99.90;;;;;;4447440;28;660146;-67
2023/04/19 01:23:49;;;;;;;58.17;30.83;;;9.00;99.90;;;;;;4455690;28;659287;-67
2023/04/19 01:26:36;;;;;;;57.95;30.85;;;8.90;99.90;;;;;;4434471;28;659895;-68
2023/04/19 01:29:23;;;;;;;61.33;30.30;;;8.90;99.90;;;;;;4444806;28;660247;-69
2023/04/19 01:32:11;;;;;;;58.37;30.10;;;8.80;99.90;;;;;;4421893;28;659626;-68
2023/04/19 01:34:59;;;;;;;64.20;29.30;;;8.80;99.90;;;;;;4444471;28;659963;-67
2023/04/19 01:37:46;;;;;;;54.80;30.20;;;8.70;99.90;;;;;;4426698;28;660290;-68
2023/04/19 01:40:34;;;;;;;59.63;30.13;;;8.70;99.90;;;;;;4449004;28;659931;-67
2023/04/19 01:43:22;;;;;;;60.33;29.47;;;8.70;99.90;;;;;;4425482;28;660957;-67
2023/04/19 01:46:09;;;;;;;62.43;29.97;;;8.60;99.90;;;;;;4435316;28;659489;-67
2023/04/19 01:48:56;;;;;;;60.17;29.97;;;8.50;99.90;;;;;;4410058;28;659544;-68
2023/04/19 01:51:43;;;;;;;55.13;28.47;;;8.50;99.90;;;;;;4445089;28;660657;-68
2023/04/19 01:54:31;;;;;;;56.07;29.53;;;8.40;99.90;;;;;;4433630;28;659484;-68
2023/04/19 01:57:19;;;;;;;60.10;30.53;;;8.40;99.90;;;;;;4437821;28;660130;-68
2023/04/19 02:00:08;;;;;;;63.60;30.23;;;8.40;99.90;;;;;;4429797;28;659513;-68
2023/04/19 02:02:55;;;;;;;67.43;31.03;;;8.40;99.90;;;;;;4432506;28;660529;-68
2023/04/19 02:05:42;;;;;;;63.50;29.97;;;8.30;99.90;;;;;;4441620;27;659940;-68
2023/04/19 02:08:30;;;;;;;63.07;30.80;;;8.30;99.90;;;;;;4435344;28;659383;-68
2023/04/19 02:11:17;;;;;;;63.87;29.47;;;8.20;99.90;;;;;;4438294;28;660201;-68
2023/04/19 02:14:07;;;;;;;61.90;30.10;;;8.20;99.90;;;;;;4449077;28;660440;-67
2023/04/19 02:16:54;;;;;;;58.53;27.77;;;8.20;99.90;;;;;;4446759;28;660061;-67
2023/04/19 02:19:41;;;;;;;60.33;29.33;;;8.20;99.90;;;;;;4418436;28;660100;-67
2023/04/19 02:22:28;;;;;;;60.17;29.57;;;8.10;99.90;;;;;;4447847;28;659630;-68
2023/04/19 02:25:18;;;;;;;68.90;30.53;;;8.10;99.90;;;;;;4430403;28;659388;-67
2023/04/19 02:28:05;;;;;;;68.97;31.70;;;8.10;99.90;;;;;;4430693;28;659511;-68
2023/04/19 02:30:54;;;;;;;66.87;31.73;;;8.00;99.90;;;;;;4442341;28;659552;-68
2023/04/19 02:33:41;;;;;;;66.22;31.02;;;8.10;99.90;;;;;;4436451;28;660437;-68
2023/04/19 02:36:28;;;;;;;64.50;29.93;;;8.00;99.90;;;;;;4455665;28;659679;-68
2023/04/19 02:39:16;;;;;;;62.57;29.97;;;8.00;99.90;;;;;;4421307;28;660405;-67
2023/04/19 02:42:03;;;;;;;61.07;28.87;;;8.00;99.90;;;;;;4456163;28;659709;-67
2023/04/19 02:44:51;;;;;;;63.00;29.10;;;8.00;99.90;;;;;;4424576;28;660160;-68
2023/04/19 02:47:39;;;;;;;57.37;28.20;;;8.10;99.90;;;;;;4452196;28;659887;-68
2023/04/19 02:50:27;;;;;;;52.23;27.07;;;8.00;99.90;;;;;;4430513;28;659602;-67
2023/04/19 02:53:14;;;;;;;48.53;25.20;;;8.00;99.90;;;;;;4450790;28;659444;-67
2023/04/19 02:56:02;;;;;;;51.37;23.67;;;7.90;99.90;;;;;;4426069;28;659472;-67
2023/04/19 02:58:49;;;;;;;46.47;24.83;;;8.00;99.90;;;;;;4450044;28;659245;-69
2023/04/19 03:01:37;;;;;;;49.30;24.97;;;8.00;99.90;;;;;;4424473;28;660095;-70
2023/04/19 03:04:25;;;;;;;44.13;23.00;;;7.90;99.90;;;;;;4448729;28;659764;-69
2023/04/19 03:07:13;;;;;;;47.93;23.77;;;7.90;99.90;;;;;;4423185;28;660202;-69
2023/04/19 03:10:00;;;;;;;43.47;21.93;;;7.80;99.90;;;;;;4434001;28;660025;-70
2023/04/19 03:12:47;;;;;;;42.63;22.33;;;7.80;99.90;;;;;;4442343;28;659444;-69
2023/04/19 03:15:34;;;;;;;41.57;22.60;;;7.70;99.90;;;;;;4433720;28;660062;-69
2023/04/19 03:18:22;;;;;;;43.60;22.43;;;7.70;99.90;;;;;;4431803;28;659992;-69
2023/04/19 03:21:10;;;;;;;40.30;21.70;;;7.70;99.90;;;;;;4449347;28;659948;-69
2023/04/19 03:23:57;;;;;;;40.27;21.17;;;7.60;99.90;;;;;;4429279;28;662688;-69
2023/04/19 03:26:45;;;;;;;39.87;20.90;;;7.60;99.90;;;;;;4454542;28;659418;-69
2023/04/19 03:29:32;;;;;;;44.80;21.83;;;7.60;99.90;;;;;;4442197;28;660199;-69
2023/04/19 03:32:20;;;;;;;43.63;22.07;;;7.50;99.90;;;;;;4447280;28;660006;-69
2023/04/19 03:35:08;;;;;;;44.47;21.10;;;7.50;99.90;;;;;;4427719;28;659884;-69
2023/04/19 03:37:57;;;;;;;43.70;21.33;;;7.50;99.90;;;;;;4435894;28;659508;-70
2023/04/19 03:40:44;;;;;;;41.87;21.83;;;7.50;99.90;;;;;;4447934;28;660183;-69
2023/04/19 03:43:31;;;;;;;37.67;20.20;;;7.50;99.90;;;;;;4436836;28;659555;-69
2023/04/19 03:46:18;;;;;;;38.87;20.00;;;7.50;99.90;;;;;;4449528;28;660930;-69
2023/04/19 03:49:05;;;;;;;34.53;20.10;;;7.50;99.90;;;;;;4433097;28;659873;-70
2023/04/19 03:51:53;;;;;;;33.70;18.60;;;7.60;99.90;;;;;;4444697;28;659998;-69
2023/04/19 03:54:42;;;;;;;34.13;17.57;;;7.50;99.90;;;;;;4432066;28;659882;-70
2023/04/19 03:57:29;;;;;;;37.87;19.33;;;7.60;99.90;;;;;;4444720;28;660000;-69
2023/04/19 04:00:16;;;;;;;31.53;18.23;;;7.60;99.90;;;;;;4435113;28;659996;-70
2023/04/19 04:03:04;;;;;;;35.73;19.70;;;7.50;99.90;;;;;;4434372;28;659916;-69
2023/04/19 04:05:51;;;;;;;37.67;18.83;;;7.60;99.90;;;;;;4431168;28;659668;-70
2023/04/19 04:08:38;;;;;;;37.07;19.33;;;7.60;99.90;;;;;;4452210;28;660423;-69
2023/04/19 04:11:27;;;;;;;35.03;19.23;;;7.60;99.90;;;;;;4432652;28;659732;-71
2023/04/19 04:14:14;;;;;;;35.90;18.53;;;7.60;99.90;;;;;;4433117;28;659182;-69
2023/04/19 04:17:01;;;;;;;33.93;18.17;;;7.60;99.90;;;;;;4433617;28;659731;-69
2023/04/19 04:19:48;;;;;;;33.80;18.20;;;7.60;99.90;;;;;;4438749;28;661217;-69
2023/04/19 04:22:36;;;;;;;37.97;20.13;;;7.50;99.90;;;;;;4423023;28;659670;-70
2023/04/19 04:25:24;;;;;;;36.35;19.42;;;7.60;99.90;;;;;;4434394;28;660479;-69
2023/04/19 04:28:13;;;;;;;32.67;18.20;;;7.60;99.90;;;;;;4426098;28;660033;-68
2023/04/19 04:31:00;;;;;;;37.27;18.50;;;7.60;99.90;;;;;;4422746;28;660014;-70
2023/04/19 04:33:47;;;;;;;34.30;18.40;;;7.60;99.90;;;;;;4460844;28;660914;-69
2023/04/19 04:36:35;;;;;;;29.80;17.47;;;7.70;99.90;;;;;;4439772;28;661003;-70
2023/04/19 04:39:23;;;;;;;33.13;18.27;;;7.70;99.90;;;;;;4428593;28;660425;-69
2023/04/19 04:42:11;;;;;;;36.80;18.33;;;7.70;99.90;;;;;;4434783;28;659550;-70
2023/04/19 04:45:00;;;;;;;37.17;18.80;;;7.70;99.90;;;;;;4457567;28;660285;-68
2023/04/19 04:47:47;;;;;;;36.57;18.87;;;7.70;99.90;;;;;;4426137;28;661658;-69
2023/04/19 04:50:34;;;;;;;34.65;19.13;;;7.70;99.90;;;;;;4451665;28;660059;-69
2023/04/19 04:53:22;;;;;;;41.60;21.73;;;7.70;99.90;;;;;;4436142;28;660374;-69
2023/04/19 04:56:09;;;;;;;54.13;24.43;;;7.70;99.90;;;;;;4432334;28;659595;-69
2023/04/19 04:58:57;;;;;;;74.77;28.73;;;7.70;99.90;;;;;;4429112;28;660046;-68
2023/04/19 05:01:45;;;;;;;66.37;30.30;;;7.70;99.90;;;;;;4446543;28;659420;-69
2023/04/19 05:04:32;;;;;;;67.90;30.37;;;7.70;99.90;;;;;;4423247;28;659187;-68
2023/04/19 05:07:19;;;;;;;62.03;30.37;;;7.70;99.90;;;;;;4404388;28;660861;-68
2023/04/19 05:10:08;;;;;;;54.73;26.27;;;7.80;99.90;;;;;;4434669;28;661175;-69
2023/04/19 05:12:55;;;;;;;47.17;25.30;;;7.70;99.90;;;;;;4421249;28;660552;-70
2023/04/19 05:15:42;;;;;;;49.83;24.60;;;7.80;99.90;;;;;;4434442;28;660202;-69
2023/04/19 05:18:32;;;;;;;42.80;23.23;;;7.80;99.90;;;;;;4442759;28;659532;-69
2023/04/19 05:21:19;;;;;;;51.40;25.83;;;7.80;99.90;;;;;;4450773;28;661345;-69
2023/04/19 05:24:08;;;;;;;37.70;20.50;;;7.90;99.90;;;;;;4427062;28;660285;-70
2023/04/19 05:26:56;;;;;;;79.57;28.77;;;7.90;99.90;;;;;;4434677;28;660664;-69
2023/04/19 05:29:43;;;;;;;90.10;30.23;;;7.90;99.90;;;;;;4448024;28;661064;-70
2023/04/19 05:32:30;;;;;;;49.88;24.08;;;8.00;99.90;;;;;;4427775;28;659832;-71
2023/04/19 05:35:19;;;;;;;76.70;30.73;;;8.10;99.90;;;;;;4445218;28;660286;-73
2023/04/19 05:38:07;;;;;;;51.28;22.27;;;8.20;99.90;;;;;;4430286;28;659592;-71
2023/04/19 05:40:54;;;;;;;56.00;23.97;;;8.20;99.90;;;;;;4455295;28;659740;-73
2023/04/19 05:43:41;;;;;;;29.60;18.07;;;8.40;99.90;;;;;;4425757;28;659537;-73
2023/04/19 05:46:28;;;;;;;32.23;18.70;;;8.50;99.90;;;;;;4437022;28;660965;-71
2023/04/19 05:49:15;;;;;;;29.30;17.77;;;8.70;99.90;;;;;;4433726;28;661757;-72
2023/04/19 05:52:05;;;;;;;28.93;16.77;;;8.50;99.90;;;;;;4448417;28;659677;-72
2023/04/19 05:54:52;;;;;;;32.23;18.63;;;8.60;99.90;;;;;;4420471;28;660517;-72
2023/04/19 05:57:39;;;;;;;37.57;19.93;;;8.50;99.90;;;;;;4445612;28;659917;-73
2023/04/19 06:00:27;;;;;;;32.53;19.07;;;8.70;99.90;;;;;;4422816;28;659921;-71
2023/04/19 06:03:14;;;;;;;39.57;22.93;;;8.70;99.90;;;;;;4447516;28;659223;-72
2023/04/19 06:06:01;;;;;;;33.90;20.57;;;8.90;99.90;;;;;;4426717;28;661102;-72
2023/04/19 06:08:50;;;;;;;37.50;22.53;;;9.10;99.90;;;;;;4434943;28;660519;-73
2023/04/19 06:11:37;;;;;;;49.13;28.87;;;9.20;99.90;;;;;;4432430;28;660686;-73
2023/04/19 06:14:28;;;;;;;41.53;22.77;;;9.40;99.90;;;;;;4455697;28;659610;-73
2023/04/19 06:17:16;;;;;;;39.80;23.13;;;9.50;99.90;;;;;;4407655;28;659603;-72
2023/04/19 06:20:05;;;;;;;36.87;20.73;;;9.50;99.90;;;;;;4458159;28;660382;-73
2023/04/19 06:22:53;;;;;;;36.80;19.33;;;9.60;99.90;;;;;;4427131;28;660189;-73
2023/04/19 06:25:42;;;;;;;37.23;21.20;;;9.60;99.90;;;;;;4419044;28;660511;-71
2023/04/19 06:28:29;;;;;;;32.10;19.70;;;9.60;99.90;;;;;;4455901;28;659436;-72
2023/04/19 06:31:16;;;;;;;22.80;14.90;;;9.60;99.90;;;;;;4426228;28;659621;-72
2023/04/19 06:34:03;;;;;;;31.17;18.20;;;9.50;99.90;;;;;;4456225;28;660842;-72
2023/04/19 06:36:51;;;;;;;22.63;14.07;;;9.40;99.90;;;;;;4429102;28;660315;-71
2023/04/19 06:39:38;;;;;;;19.47;12.63;;;9.20;99.90;;;;;;4445974;28;660327;-73
2023/04/19 06:42:27;;;;;;;18.90;12.52;;;9.00;99.90;;;;;;4437184;28;659507;-71
2023/04/19 06:45:15;;;;;;;15.20;8.90;;;8.80;99.90;;;;;;4448259;28;660236;-73
2023/04/19 06:48:02;;;;;;;8.47;5.77;;;8.70;99.90;;;;;;4436886;28;658560;-72
2023/04/19 06:50:49;;;;;;;8.40;5.80;;;8.60;99.90;;;;;;4445629;28;658204;-73
2023/04/19 06:53:36;;;;;;;8.03;5.30;;;8.50;99.90;;;;;;4421868;28;657369;-72
2023/04/19 06:56:39;;;;;;;9.23;5.00;;;8.50;99.90;;;;;;4439324;28;658211;-73
2023/04/19 06:59:27;;;;;;;6.17;4.23;;;8.50;99.90;;;;;;4437569;28;657587;-70
2023/04/19 07:02:14;;;;;;;5.23;3.80;;;8.50;99.90;;;;;;4461662;28;656921;-73
2023/04/19 07:05:02;;;;;;;6.23;3.37;;;8.40;99.90;;;;;;4437734;28;659817;-73
2023/04/19 07:07:49;;;;;;;5.33;3.50;;;8.40;99.90;;;;;;4429105;28;657862;-73
2023/04/19 07:10:37;;;;;;;4.37;3.20;;;8.20;99.90;;;;;;4425332;28;658290;-73
2023/04/19 07:13:24;;;;;;;5.20;3.40;;;8.20;99.90;;;;;;4445123;28;658369;-73
2023/04/19 07:16:13;;;;;;;4.23;2.80;;;8.20;99.90;;;;;;4428341;28;657742;-72
2023/04/19 07:19:00;;;;;;;15.33;6.70;;;8.40;99.90;;;;;;4415446;28;657983;-72
2023/04/19 07:21:48;;;;;;;14.77;6.00;;;8.50;99.90;;;;;;4441182;28;659019;-73
2023/04/19 07:24:36;;;;;;;5.87;3.70;;;8.50;99.90;;;;;;4425447;28;658832;-71
2023/04/19 07:27:23;;;;;;;4.23;3.03;;;8.70;99.90;;;;;;4443869;28;659732;-73
2023/04/19 07:30:11;;;;;;;3.53;2.50;;;9.00;99.90;;;;;;4416474;28;657833;-72
2023/04/19 07:32:59;;;;;;;3.60;2.20;;;9.10;99.90;;;;;;4437943;28;657258;-73
2023/04/19 07:35:46;;;;;;;4.13;2.60;;;9.20;99.90;;;;;;4420619;28;659396;-72
2023/04/19 07:38:34;;;;;;;4.13;2.93;;;9.40;99.90;;;;;;4445706;28;658072;-72
2023/04/19 07:41:21;;;;;;;4.00;2.50;;;9.80;99.90;;;;;;4437507;28;657775;-73
2023/04/19 07:44:08;;;;;;;7.37;4.27;;;10.10;99.90;;;;;;4452485;28;658621;-73
2023/04/19 07:46:55;;;;;;;4.35;2.60;;;10.40;99.90;;;;;;4419584;28;658742;-71
2023/04/19 07:49:44;;;;;;;3.50;2.17;;;10.70;99.90;;;;;;4448164;28;659206;-73
2023/04/19 07:52:31;;;;;;;2.73;2.00;;;10.60;99.90;;;;;;4428564;28;658628;-73
2023/04/19 07:55:19;;;;;;;3.15;2.10;;;10.80;99.90;;;;;;4449695;28;659874;-74
2023/04/19 07:58:06;;;;;;;4.27;2.40;;;10.60;99.90;;;;;;4432656;28;659435;-73
2023/04/19 08:00:54;;;;;;;2.30;1.90;;;11.00;99.90;;;;;;4456342;28;659401;-73
2023/04/19 08:03:41;;;;;;;2.80;1.97;;;10.60;99.90;;;;;;4427760;28;659134;-72
2023/04/19 08:06:31;;;;;;;3.15;2.00;;;10.50;99.90;;;;;;4445828;28;659240;-73
2023/04/19 08:09:18;;;;;;;3.53;2.20;;;10.40;99.90;;;;;;4433578;28;659554;-71
2023/04/19 08:12:05;;;;;;;2.42;1.95;;;10.70;99.90;;;;;;4439059;28;659145;-72
2023/04/19 08:14:53;;;;;;;3.87;2.37;;;10.60;99.90;;;;;;4446411;28;658662;-71
2023/04/19 08:17:41;;;;;;;4.50;2.83;;;10.40;99.90;;;;;;4429730;28;658769;-72
2023/04/19 08:20:28;;;;;;;3.30;2.57;;;10.30;99.90;;;;;;4451753;28;659291;-72
2023/04/19 08:23:17;;;;;;;3.97;2.53;;;10.50;99.90;;;;;;4421509;28;659030;-72
2023/04/19 08:26:04;;;;;;;2.47;1.97;;;10.40;99.90;;;;;;4460191;28;658394;-73
2023/04/19 08:28:51;;;;;;;3.73;2.57;;;10.40;99.90;;;;;;4426103;28;659512;-74
2023/04/19 08:31:39;;;;;;;2.93;2.20;;;10.00;99.90;;;;;;4446321;28;659904;-73
2023/04/19 08:34:26;;;;;;;2.40;1.70;;;10.10;99.90;;;;;;4424487;28;659215;-74
2023/04/19 08:37:13;;;;;;;3.97;1.97;;;10.20;99.90;;;;;;4457093;28;660229;-74
2023/04/19 08:40:02;;;;;;;1.93;1.70;;;10.60;99.90;;;;;;4433723;28;659055;-73
2023/04/19 08:42:49;;;;;;;1.83;1.50;;;10.50;99.90;;;;;;4430638;28;658402;-71
2023/04/19 08:45:37;;;;;;;2.07;1.60;;;10.40;99.90;;;;;;4433063;28;658739;-73
2023/04/19 08:48:24;;;;;;;2.83;1.73;;;10.30;99.90;;;;;;4458884;28;658658;-72
2023/04/19 08:51:12;;;;;;;1.65;1.25;;;9.30;99.90;;;;;;4428825;28;659092;-73
2023/04/19 08:53:59;;;;;;;2.57;1.40;;;9.20;99.90;;;;;;4452943;28;657270;-73
2023/04/19 08:56:48;;;;;;;3.63;1.70;;;9.10;99.90;;;;;;4441517;28;657928;-73
2023/04/19 08:59:35;;;;;;;2.20;1.77;;;9.30;99.90;;;;;;4430093;28;657466;-71
2023/04/19 09:02:23;;;;;;;2.23;1.53;;;9.50;99.90;;;;;;4431447;28;658120;-73
2023/04/19 09:05:10;;;;;;;3.70;1.70;;;9.60;99.90;;;;;;4444735;28;658330;-70
2023/04/19 09:08:19;;;;;;;2.00;1.63;;;9.60;99.90;;;;;;4454205;28;659071;-73
2023/04/19 09:11:06;;;;;;;2.53;1.63;;;9.70;99.90;;;;;;4395785;28;658253;-73
2023/04/19 09:13:55;;;;;;;3.13;1.70;;;9.80;99.90;;;;;;4453051;28;658221;-73
2023/04/19 09:16:42;;;;;;;4.33;2.07;;;10.10;99.90;;;;;;4433329;28;658243;-73
2023/04/19 09:19:33;;;;;;;3.33;2.07;;;10.10;99.90;;;;;;4451275;28;658594;-72
2023/04/19 09:22:20;;;;;;;4.57;2.03;;;9.90;99.90;;;;;;4426706;28;659361;-71
2023/04/19 09:25:08;;;;;;;3.03;2.00;;;10.00;99.90;;;;;;4443886;28;658561;-73
2023/04/19 09:27:56;;;;;;;4.83;2.10;;;10.40;99.90;;;;;;4422146;28;659089;-72
2023/04/19 09:30:45;;;;;;;4.20;2.00;;;10.70;99.90;;;;;;4432068;28;659896;-73
2023/04/19 09:33:33;;;;;;;3.23;2.10;;;10.90;99.90;;;;;;4427181;28;659506;-72
2023/04/19 09:36:27;;;;;;;5.20;2.00;;;10.90;99.90;;;;;;4439110;28;658599;-71
2023/04/19 09:39:15;;;;;;;2.97;1.77;;;10.80;99.90;;;;;;4434029;28;658594;-73
2023/04/19 09:42:02;;;;;;;3.45;2.13;;;10.40;99.90;;;;;;4424476;28;660171;-73
2023/04/19 09:44:57;;;;;;;5.97;2.90;;;10.50;99.90;;;;;;4449759;28;660244;-70
2023/04/19 09:47:46;;;;;;;4.23;2.53;;;10.20;99.90;;;;;;4419791;28;658994;-72
2023/04/19 09:50:33;;;;;;;3.90;2.30;;;10.40;99.90;;;;;;4412198;28;658841;-73
2023/04/19 09:53:20;;;;;;;9.90;4.87;;;10.00;99.90;;;;;;4437078;28;658655;-71
2023/04/19 09:56:08;;;;;;;4.83;2.50;;;10.20;99.90;;;;;;4455335;28;659542;-73
2023/04/19 09:58:55;;;;;;;11.07;5.00;;;10.50;99.90;;;;;;4429441;28;658782;-71
2023/04/19 10:01:44;;;;;;;6.30;3.37;;;10.60;99.90;;;;;;4444627;28;660634;-73
2023/04/19 10:04:33;;;;;;;3.43;1.97;;;10.70;99.90;;;;;;4423279;28;659181;-72
2023/04/19 10:07:20;;;;;;;5.50;2.30;;;10.70;99.90;;;;;;4436558;28;660520;-71
2023/04/19 10:10:08;;;;;;;2.87;2.10;;;10.40;99.90;;;;;;4454979;28;659239;-73
2023/04/19 10:12:55;;;;;;;7.30;4.33;;;10.20;99.90;;;;;;4435502;28;658991;-71
2023/04/19 10:15:43;;;;;;;2.60;1.80;;;10.10;99.90;;;;;;4452080;28;660141;-72
2023/04/19 10:18:30;;;;;;;8.10;5.33;;;10.00;99.90;;;;;;4422435;28;658998;-72
2023/04/19 10:21:19;;;;;;;5.63;3.63;;;9.80;99.90;;;;;;4448477;28;659336;-70
2023/04/19 10:24:07;;;;;;;4.73;2.60;;;9.80;99.90;;;;;;4428598;28;657987;-72
2023/04/19 10:27:11;;;;;;;10.40;5.53;;;9.70;99.90;;;;;;4453108;28;659488;-73
2023/04/19 10:29:58;;;;;;;4.73;2.70;;;9.60;99.90;;;;;;4417011;28;658862;-73
2023/04/19 10:32:51;;;;;;;6.17;4.03;;;9.60;99.90;;;;;;4429092;28;657618;-73
2023/04/19 10:35:39;;;;;;;16.47;7.73;;;9.50;99.90;;;;;;4422421;28;657580;-73
2023/04/19 10:38:42;;;;;;;12.53;6.00;;;9.40;99.90;;;;;;4432656;28;659274;-73
2023/04/19 10:41:57;;;;;;;6.33;3.93;;;9.40;99.90;;;;;;4412795;28;659677;-71
2023/04/19 10:45:29;;;;;;;5.13;3.47;;;9.30;99.90;;;;;;4426331;28;657332;-73
2023/04/19 10:48:37;;;;;;;46.47;21.23;;;9.20;99.90;;;;;;4352198;28;658358;-73
2023/04/19 10:51:26;;;;;;;12.83;6.13;;;9.20;99.90;;;;;;4422550;28;659464;-73
2023/04/19 10:54:31;;;;;;;22.90;11.10;;;9.20;99.90;;;;;;4416837;28;659407;-72
2023/04/19 10:57:18;;;;;;;11.93;6.27;;;9.20;99.90;;;;;;4414773;28;660117;-73
2023/04/19 11:00:19;;;;;;;5.43;4.00;;;9.20;99.90;;;;;;4435747;28;659890;-71
2023/04/19 11:03:40;;;;;;;11.80;5.43;;;9.00;99.90;;;;;;4438601;28;658571;-73
2023/04/19 11:06:27;;;;;;;12.30;7.97;;;9.00;99.90;;;;;;4431966;28;658667;-73
2023/04/19 11:09:22;;;;;;;32.73;15.20;;;8.90;99.90;;;;;;4450238;28;658818;-73
2023/04/19 11:12:11;;;;;;;13.67;7.20;;;9.00;99.90;;;;;;4417975;28;659724;-73
2023/04/19 11:14:59;;;;;;;10.57;6.70;;;9.00;99.90;;;;;;4407281;28;659974;-73
2023/04/19 11:17:49;;;;;;;8.97;4.83;;;9.10;99.90;;;;;;4426854;28;658633;-73
2023/04/19 11:20:37;;;;;;;10.40;4.37;;;9.20;99.90;;;;;;4429355;28;658387;-72
2023/04/19 11:23:24;;;;;;;5.23;3.80;;;9.20;99.90;;;;;;4456610;28;659120;-73
2023/04/19 11:26:11;;;;;;;5.87;2.90;;;9.20;99.90;;;;;;4425965;28;657701;-72
2023/04/19 11:29:00;;;;;;;4.32;2.65;;;9.10;99.90;;;;;;4445828;28;658940;-73
2023/04/19 11:31:47;;;;;;;4.40;2.77;;;9.00;99.90;;;;;;4425640;28;657933;-73
2023/04/19 11:34:38;;;;;;;4.30;2.57;;;8.70;99.90;;;;;;4453938;28;657960;-73
2023/04/19 11:37:25;;;;;;;5.03;2.90;;;8.50;99.90;;;;;;4424766;28;657394;-71
2023/04/19 11:40:15;;;;;;;5.33;2.70;;;8.50;99.90;;;;;;4457334;28;658960;-73
2023/04/19 11:43:03;;;;;;;5.30;2.77;;;8.60;99.90;;;;;;4428236;28;659008;-73
2023/04/19 11:45:52;;;;;;;5.13;3.23;;;8.40;99.90;;;;;;4422046;28;657600;-73
2023/04/19 11:48:39;;;;;;;5.23;3.10;;;8.40;99.90;;;;;;4439956;28;658564;-73
2023/04/19 11:51:27;;;;;;;5.17;3.43;;;8.40;99.90;;;;;;4437513;28;659289;-73
2023/04/19 11:54:16;;;;;;;12.43;5.70;;;8.40;99.90;;;;;;4462748;27;657272;-72
2023/04/19 11:57:04;;;;;;;12.10;6.63;;;8.40;99.90;;;;;;4431696;28;659798;-74
2023/04/19 12:00:04;;;;;;;10.60;6.33;;;8.50;99.90;;;;;;4413029;28;658557;-73
2023/04/19 12:02:52;;;;;;;12.33;5.67;;;8.50;99.90;;;;;;4423477;28;658581;-72
2023/04/19 12:05:40;;;;;;;11.33;5.67;;;8.50;99.90;;;;;;4439767;28;658544;-72
2023/04/19 12:08:31;;;;;;;11.80;6.70;;;8.50;99.90;;;;;;4440720;28;660082;-73
2023/04/19 12:11:20;;;;;;;15.40;7.33;;;8.40;99.90;;;;;;4413457;28;658623;-73
2023/04/19 12:14:10;;;;;;;16.23;8.33;;;8.40;99.90;;;;;;4424759;28;659066;-73
2023/04/19 12:17:08;;;;;;;17.93;9.30;;;8.40;99.90;;;;;;4421895;28;659749;-73
2023/04/19 12:19:57;;;;;;;20.65;9.57;;;8.40;99.90;;;;;;4387731;28;658667;-72
2023/04/19 12:22:44;;;;;;;18.63;9.57;;;8.30;99.90;;;;;;4424366;28;658300;-73
2023/04/19 12:25:32;;;;;;;20.70;10.97;;;8.50;99.90;;;;;;4414314;28;659464;-72
2023/04/19 12:28:19;;;;;;;19.03;10.20;;;8.50;99.90;;;;;;4445687;28;659573;-73
2023/04/19 12:31:06;;;;;;;19.07;9.97;;;8.70;99.90;;;;;;4418285;28;659694;-73
2023/04/19 12:33:53;;;;;;;16.37;9.60;;;8.60;99.90;;;;;;4445692;28;659376;-73
2023/04/19 12:36:42;;;;;;;14.97;9.90;;;8.50;99.90;;;;;;4439320;28;658748;-73
2023/04/19 12:39:29;;;;;;;15.73;9.43;;;8.50;99.90;;;;;;4445547;28;659201;-71
2023/04/19 12:42:16;;;;;;;17.70;9.93;;;8.60;99.90;;;;;;4414919;28;658512;-72
2023/04/19 12:45:04;;;;;;;16.07;9.07;;;8.50;99.90;;;;;;4448853;28;658845;-73
2023/04/19 12:47:51;;;;;;;15.70;9.53;;;8.40;99.90;;;;;;4433189;28;658840;-72
2023/04/19 12:50:38;;;;;;;15.13;9.33;;;8.60;99.90;;;;;;4431205;28;658680;-71
2023/04/19 12:53:27;;;;;;;14.93;8.97;;;8.80;99.90;;;;;;4421781;28;659219;-72
2023/04/19 12:56:14;;;;;;;12.30;8.23;;;8.60;99.90;;;;;;4451224;28;658422;-73
2023/04/19 12:59:02;;;;;;;14.33;8.93;;;8.70;99.90;;;;;;4415909;28;660047;-73
2023/04/19 13:01:49;;;;;;;13.17;8.93;;;8.90;99.90;;;;;;4436452;28;658797;-72
2023/04/19 13:04:36;;;;;;;15.57;9.20;;;8.80;99.90;;;;;;4429346;28;659334;-73
2023/04/19 13:07:23;;;;;;;15.67;9.70;;;8.90;99.90;;;;;;4434634;28;659637;-73
2023/04/19 13:10:12;;;;;;;12.33;8.57;;;9.00;99.90;;;;;;4423311;28;658876;-72
2023/04/19 13:12:59;;;;;;;14.50;9.30;;;9.00;99.90;;;;;;4450892;28;658671;-73
2023/04/19 13:15:46;;;;;;;16.73;10.03;;;8.90;99.90;;;;;;4438576;28;659065;-73
2023/04/19 13:18:34;;;;;;;17.50;10.37;;;8.90;99.90;;;;;;4450931;28;660277;-73
2023/04/19 13:21:22;;;;;;;17.70;10.00;;;9.00;99.90;;;;;;4427979;28;660454;-73
2023/04/19 13:24:09;;;;;;;18.30;10.53;;;9.10;99.90;;;;;;4448526;28;659489;-73
2023/04/19 13:26:58;;;;;;;18.50;10.50;;;9.10;99.90;;;;;;4412639;28;659922;-73
2023/04/19 13:29:45;;;;;;;18.03;11.50;;;9.10;99.90;;;;;;4425591;28;660077;-71
2023/04/19 13:32:32;;;;;;;19.60;11.10;;;9.10;99.90;;;;;;4452591;28;661235;-72
2023/04/19 13:35:20;;;;;;;18.83;11.73;;;9.00;99.90;;;;;;4436740;28;658808;-73
2023/04/19 13:38:07;;;;;;;18.33;11.27;;;8.90;99.90;;;;;;4420043;28;660489;-73
2023/04/19 13:40:55;;;;;;;20.80;12.20;;;8.90;99.90;;;;;;4438901;28;659080;-73
2023/04/19 13:43:43;;;;;;;23.10;11.70;;;8.90;99.90;;;;;;4412162;28;661046;-73
2023/04/19 13:46:31;;;;;;;25.57;13.77;;;8.90;99.90;;;;;;4412789;28;659799;-72
2023/04/19 13:49:18;;;;;;;25.70;13.77;;;9.00;99.90;;;;;;4433395;28;659628;-73
2023/04/19 13:52:06;;;;;;;25.87;14.00;;;9.10;99.90;;;;;;4421474;28;660531;-71
2023/04/19 13:54:53;;;;;;;23.15;14.00;;;9.10;99.90;;;;;;4432569;28;660381;-73
2023/04/19 13:57:41;;;;;;;22.60;13.33;;;9.20;99.90;;;;;;4414445;28;659839;-72
2023/04/19 14:00:30;;;;;;;24.20;13.20;;;9.50;99.90;;;;;;4442170;28;660463;-73
2023/04/19 14:03:17;;;;;;;23.40;12.30;;;9.80;99.90;;;;;;4425677;28;661244;-73
2023/04/19 14:06:04;;;;;;;21.43;12.47;;;9.80;99.90;;;;;;4438508;28;659278;-73
2023/04/19 14:08:52;;;;;;;21.23;12.07;;;10.00;99.90;;;;;;4424616;28;661186;-73
2023/04/19 14:11:39;;;;;;;17.63;11.63;;;10.00;99.90;;;;;;4425800;28;660703;-73
2023/04/19 14:14:26;;;;;;;21.63;12.00;;;9.90;99.90;;;;;;4422611;28;661244;-73
2023/04/19 14:17:15;;;;;;;26.20;13.90;;;9.70;99.90;;;;;;4433450;28;660278;-73
2023/04/19 14:20:02;;;;;;;19.33;11.70;;;9.60;99.90;;;;;;4418914;28;660925;-73
2023/04/19 14:22:49;;;;;;;24.07;12.93;;;9.50;99.90;;;;;;4447503;28;659482;-73